ADDS TAF Board (Experimental) INFO

IDs: Format: Expanded Condensed

Updated at: 0212 UTC 21 Nov 2014

KMCO - Orlando Intl, FL, US

Issued at 2326 UTC 20 Nov 2014
Time0153Z21/03Z21/04Z21/05Z21/06Z21/07Z21/08Z21/09Z21/10Z21/11Z21/12Z21/13Z21/14Z21/15Z
TypeOBSPRVLPRVLPRVLPRVLPRVLPRVLPRVLPRVLPRVLPRVLPRVLPRVLPRVL
VIS10>6>6>6>6>6>6>6>6>6>6>6>6>6
CIG250250250250250250250250250250250250250--
CoverBKNBKNBKNBKNBKNBKNBKNBKNBKNBKNBKNBKNBKNSCT
FltCat--VFRVFRVFRVFRVFRVFRVFRVFRVFRVFRVFRVFRVFR
WX----------------------------
WDir35020202020202020202020202040
WSpd766666666666612
WGst----------------------------
R17/35
XWnd-12222222222228
HWnd-7-6-6-6-6-6-6-6-6-6-6-6-6-9
R18/36
XWnd-12222222222228
HWnd-7-6-6-6-6-6-6-6-6-6-6-6-6-9
Raw TAF
KMCO 202326Z 2100/2124 02006KT P6SM BKN250
  FM211500 04012KT P6SM FEW040 SCT250


Raw METAR
KMCO 210153Z 35007KT 10SM BKN250 12/07 A3024 RMK AO2 SLP238 T01220072

TAF Board Legend

Hazard VFR MVFR IFR LIFR
Visibility (sm) >5 3≤X≤5 1≤X<3 <1
Ceiling (100 ft) >30 10≤X≤30 5≤X<10 <5
Wind Speed (kt) <10 10≤X<20 20≤X<30 ≥30
Wind Gust (kt) <15 15≤X<25 25≤X<35 ≥35
Weather No Wx Reported VCTS,-TS,-FZRA TS,FZRA +TS,+FZRA


Page loaded:  02:12 UTC  |   06:12 PM Pacific  |   07:12 PM Mountain  |   08:12 PM Central  |   09:12 PM Eastern

 

ADVISORIES

FORECASTS

FORECASTS

OBSERVATIONS

USER TOOLS

ABOUT US